Willis, Michigan
Current Conditions -  °F | °C
As of 5:53 AM on Sunday 21 Dec 2014 (Local Time) from KYIP Reporting Station
Haze Haze  
Wind Chill: 29°   Ceiling: 6500
Heat Index: 29°   Visibility: 6mi
Dew Point: 23°   Wind: 0mph
Humidity: 78%   Direction: NA
Pressure: 30.3"   Gusts: NA
Location:  42.16°N, 83.56°W
Report Text: KYIP 211053Z AUTO 00000KT 6SM HZ SCT040 OVC065 M02/M05 A3030 RMK AO2 SLP267 T10171050 TSNO
Loading
Personal Weather Stations






























Interactive Weather Map New forecast layout! Learn more

10-Day Weather Forecast

Advertisements
Track Severe Weather on mobile